createdAt,value
2019-05-13T00:00:14.730Z,10.37
2019-05-13T00:04:18.970Z,10.40
2019-05-13T00:08:24.921Z,10.41
2019-05-13T00:12:29.361Z,10.41
2019-05-13T00:16:34.126Z,10.41
2019-05-13T00:20:38.550Z,10.40
2019-05-13T00:24:44.300Z,10.40
2019-05-13T00:28:48.765Z,10.40
2019-05-13T00:32:54.596Z,10.40
2019-05-13T00:37:08.986Z,10.40
2019-05-13T00:41:04.932Z,10.40
2019-05-13T00:45:09.544Z,10.42
2019-05-13T00:49:13.927Z,10.41
2019-05-13T00:53:18.170Z,10.36
2019-05-13T00:57:23.830Z,10.31
2019-05-13T01:01:28.426Z,10.31
2019-05-13T01:05:34.017Z,10.34
2019-05-13T01:09:38.427Z,10.35
2019-05-13T01:13:43.477Z,10.36
2019-05-13T01:17:47.855Z,10.35
2019-05-13T01:21:54.025Z,10.33
2019-05-13T01:25:58.871Z,10.35
2019-05-13T01:30:04.159Z,10.33
2019-05-13T01:34:08.518Z,10.35
2019-05-13T01:38:13.516Z,10.35
2019-05-13T01:42:17.941Z,10.35
2019-05-13T01:46:24.110Z,10.37
2019-05-13T01:50:28.141Z,10.35
2019-05-13T01:54:33.913Z,10.34
2019-05-13T01:58:38.435Z,10.36
2019-05-13T02:02:44.507Z,10.36
2019-05-13T02:06:48.712Z,10.36
2019-05-13T02:10:57.285Z,10.31
2019-05-13T02:15:04.227Z,10.29
2019-05-13T02:19:07.574Z,10.29
2019-05-13T02:23:14.357Z,10.27
2019-05-13T02:27:17.800Z,10.22
2019-05-13T02:31:32.079Z,10.23
2019-05-13T02:35:28.167Z,10.21
2019-05-13T02:39:33.066Z,10.22
2019-05-13T02:43:41.374Z,10.21
2019-05-13T02:47:44.357Z,10.18
2019-05-13T02:51:48.939Z,10.17
2019-05-13T02:55:53.639Z,10.20
2019-05-13T02:59:58.263Z,10.18
2019-05-13T03:04:03.331Z,10.19
2019-05-13T03:08:08.253Z,10.18
2019-05-13T03:12:13.205Z,10.21
2019-05-13T03:16:51.775Z,10.22
2019-05-13T03:20:55.134Z,10.22
2019-05-13T03:25:02.811Z,10.18
2019-05-13T03:29:05.362Z,10.17
2019-05-13T03:33:16.705Z,10.17
2019-05-13T03:37:16.590Z,10.18
2019-05-13T03:41:22.789Z,10.17
2019-05-13T03:45:28.982Z,10.14
2019-05-13T03:49:36.239Z,10.14
2019-05-13T03:53:43.308Z,10.15
2019-05-13T03:57:47.221Z,10.17
2019-05-13T04:01:52.547Z,10.12
2019-05-13T04:05:57.151Z,10.12
2019-05-13T04:10:03.428Z,10.11
2019-05-13T04:14:07.867Z,10.12
2019-05-13T04:18:12.696Z,10.17
2019-05-13T04:22:17.097Z,10.19
2019-05-13T04:26:23.516Z,10.20
2019-05-13T04:30:27.731Z,10.22
2019-05-13T04:34:33.748Z,10.23
2019-05-13T04:38:38.717Z,10.24
2019-05-13T04:42:42.966Z,10.24
2019-05-13T04:46:47.344Z,10.24
2019-05-13T04:50:53.378Z,10.24
2019-05-13T04:54:57.828Z,10.22
2019-05-13T04:59:03.026Z,10.21
2019-05-13T05:03:22.752Z,10.23
2019-05-13T05:07:43.205Z,10.24
2019-05-13T05:12:24.737Z,10.23
2019-05-13T05:16:44.939Z,10.24
2019-05-13T05:21:01.321Z,10.24
2019-05-13T05:25:23.186Z,10.25
2019-05-13T05:30:02.112Z,10.26
2019-05-13T05:34:16.870Z,10.26
2019-05-13T05:38:35.827Z,10.24
2019-05-13T05:42:42.082Z,10.24
2019-05-13T05:46:51.424Z,10.26
2019-05-13T05:50:56.915Z,10.26
2019-05-13T05:55:02.832Z,10.25
2019-05-13T06:03:17.135Z,10.29
2019-05-13T06:07:22.028Z,10.29
2019-05-13T06:11:26.487Z,10.25
2019-05-13T06:15:31.570Z,10.30
2019-05-13T06:19:35.920Z,10.30
2019-05-13T06:23:41.839Z,10.32
2019-05-13T06:27:46.248Z,10.34
2019-05-13T06:31:51.965Z,10.33
2019-05-13T06:35:56.335Z,10.36
2019-05-13T06:40:01.997Z,10.36
2019-05-13T06:44:07.057Z,10.38
2019-05-13T06:48:11.848Z,10.42
2019-05-13T06:52:16.102Z,10.45
2019-05-13T06:56:21.754Z,10.47
2019-05-13T07:00:26.406Z,10.49
2019-05-13T07:04:32.651Z,10.53
2019-05-13T07:08:36.612Z,10.53
2019-05-13T07:12:41.326Z,10.53
2019-05-13T07:16:45.568Z,10.54
2019-05-13T07:20:49.840Z,10.53
2019-05-13T07:24:54.080Z,10.54
2019-05-13T07:28:58.866Z,10.58
2019-05-13T07:33:03.612Z,10.58
2019-05-13T07:37:07.882Z,10.55
2019-05-13T07:41:12.182Z,10.57
2019-05-13T07:45:16.444Z,10.61
2019-05-13T07:49:22.495Z,10.64
2019-05-13T07:53:26.700Z,10.68
2019-05-13T07:57:31.941Z,10.70
2019-05-13T08:01:36.289Z,10.81
2019-05-13T08:05:41.828Z,10.81
2019-05-13T08:09:46.288Z,10.79
2019-05-13T08:13:51.774Z,10.85
2019-05-13T08:17:56.139Z,10.89
2019-05-13T08:22:02.173Z,10.93
2019-05-13T08:26:06.329Z,11.00
2019-05-13T08:30:11.865Z,11.03
2019-05-13T08:34:16.306Z,11.08
2019-05-13T08:38:22.985Z,11.09
2019-05-13T08:42:27.024Z,11.14
2019-05-13T08:46:32.248Z,11.18
2019-05-13T08:50:36.707Z,11.21
2019-05-13T08:54:41.840Z,11.21
2019-05-13T08:58:46.398Z,11.25
2019-05-13T09:02:52.241Z,11.25
2019-05-13T09:06:56.731Z,11.28
2019-05-13T09:11:02.523Z,11.29
2019-05-13T09:15:07.213Z,11.33
2019-05-13T09:19:15.851Z,11.35
2019-05-13T09:23:17.450Z,11.38
2019-05-13T09:27:22.636Z,11.42
2019-05-13T09:31:27.885Z,11.42
2019-05-13T09:35:32.310Z,11.50
2019-05-13T09:39:36.580Z,11.55
2019-05-13T09:43:41.979Z,11.61
2019-05-13T09:47:46.561Z,11.71
2019-05-13T09:51:52.305Z,11.93
2019-05-13T09:55:56.753Z,11.93
2019-05-13T10:00:01.947Z,12.02
2019-05-13T10:04:06.790Z,12.22
2019-05-13T10:08:12.568Z,12.22
2019-05-13T10:12:16.928Z,12.40
2019-05-13T10:16:22.017Z,12.40
2019-05-13T10:20:43.461Z,12.50
2019-05-13T10:24:48.021Z,12.56
2019-05-13T10:28:52.441Z,12.56
2019-05-13T10:32:59.457Z,12.58
2019-05-13T10:37:02.890Z,12.61
2019-05-13T10:41:07.116Z,12.62
2019-05-13T10:45:12.823Z,12.63
2019-05-13T10:49:17.319Z,12.61
2019-05-13T10:53:22.291Z,12.66
2019-05-13T10:57:26.649Z,12.73
2019-05-13T11:01:32.745Z,12.83
2019-05-13T11:05:41.163Z,12.89
2019-05-13T11:09:42.872Z,12.92
2019-05-13T11:13:54.395Z,13.01
2019-05-13T11:17:53.584Z,13.05
2019-05-13T11:21:57.780Z,13.04
2019-05-13T11:26:03.028Z,12.98
2019-05-13T11:30:08.325Z,12.93
2019-05-13T11:34:12.990Z,12.95
2019-05-13T11:38:17.521Z,12.98
2019-05-13T11:42:22.667Z,12.96
2019-05-13T11:46:27.347Z,12.99
2019-05-13T11:50:31.654Z,13.04
2019-05-13T11:54:35.906Z,13.07
2019-05-13T11:58:43.203Z,13.12
2019-05-13T12:02:50.835Z,13.17
2019-05-13T12:06:54.536Z,13.24
2019-05-13T12:10:58.609Z,13.30
2019-05-13T12:15:26.381Z,13.28
2019-05-13T12:19:11.798Z,13.22
2019-05-13T12:23:15.110Z,13.17
2019-05-13T12:27:19.346Z,13.16
2019-05-13T12:31:23.665Z,13.19
2019-05-13T12:35:27.906Z,13.27
2019-05-13T12:39:32.240Z,13.32
2019-05-13T12:43:36.871Z,13.34
2019-05-13T12:47:43.279Z,13.39
2019-05-13T12:51:47.281Z,13.35
2019-05-13T12:55:56.714Z,13.33
2019-05-13T12:59:57.843Z,13.33
2019-05-13T13:04:02.405Z,13.33
2019-05-13T13:08:29.016Z,13.37
2019-05-13T13:12:12.641Z,13.39
2019-05-13T13:16:16.905Z,13.36
2019-05-13T13:20:24.214Z,13.35
2019-05-13T13:24:27.281Z,13.35
2019-05-13T13:28:34.174Z,13.35
2019-05-13T13:32:37.655Z,13.32
2019-05-13T13:36:45.965Z,13.28
2019-05-13T13:40:48.370Z,13.28
2019-05-13T13:44:54.044Z,13.28
2019-05-13T13:48:58.743Z,13.28
2019-05-13T13:53:03.012Z,13.27
2019-05-13T13:57:07.270Z,13.27
2019-05-13T14:01:18.534Z,13.28
2019-05-13T14:05:17.932Z,13.30
2019-05-13T14:09:22.511Z,13.27
2019-05-13T14:13:26.730Z,13.25
2019-05-13T14:17:31.295Z,13.22
2019-05-13T14:21:35.615Z,13.17
2019-05-13T14:25:42.011Z,13.15
2019-05-13T14:29:49.375Z,13.09
2019-05-13T14:33:52.364Z,13.05
2019-05-13T14:37:57.234Z,13.05
2019-05-13T14:42:02.156Z,13.02
2019-05-13T14:46:06.708Z,13.02
2019-05-13T14:50:12.169Z,13.03
2019-05-13T14:54:16.660Z,13.00
2019-05-13T14:58:21.915Z,13.00
2019-05-13T15:02:26.319Z,12.96
2019-05-13T15:06:32.714Z,12.93
2019-05-13T15:10:37.042Z,12.89
2019-05-13T15:14:42.974Z,12.88
2019-05-13T15:18:47.446Z,12.81
2019-05-13T15:22:52.080Z,12.72
2019-05-13T15:26:56.511Z,12.74
2019-05-13T15:31:00.948Z,12.73
2019-05-13T15:35:06.095Z,12.70
2019-05-13T15:39:11.303Z,12.71
2019-05-13T15:43:16.253Z,12.73
2019-05-13T15:47:24.078Z,12.75
2019-05-13T15:51:26.828Z,12.75
2019-05-13T15:55:31.112Z,12.75
2019-05-13T15:59:35.536Z,12.71
2019-05-13T16:03:41.540Z,12.68
2019-05-13T16:07:46.016Z,12.66
2019-05-13T16:11:52.174Z,12.69
2019-05-13T16:15:56.703Z,12.59
2019-05-13T16:20:02.090Z,12.54
2019-05-13T16:24:06.451Z,12.56
2019-05-13T16:28:10.911Z,12.49
2019-05-13T16:32:15.541Z,12.44
2019-05-13T16:36:22.130Z,12.37
2019-05-13T16:40:25.783Z,12.35
2019-05-13T16:44:31.841Z,12.35
2019-05-13T16:48:36.266Z,12.28
2019-05-13T16:52:41.817Z,12.29
2019-05-13T16:56:46.202Z,12.26
2019-05-13T17:00:52.056Z,12.18
2019-05-13T17:04:56.570Z,12.12
2019-05-13T17:09:02.077Z,12.13
2019-05-13T17:13:06.419Z,12.08
2019-05-13T17:17:11.918Z,11.99
2019-05-13T17:21:16.356Z,11.93
2019-05-13T17:25:20.613Z,11.82
2019-05-13T17:29:24.954Z,11.75
2019-05-13T17:33:29.256Z,11.68
2019-05-13T17:37:33.510Z,11.59
2019-05-13T17:41:37.824Z,11.56
2019-05-13T17:45:42.090Z,11.54
2019-05-13T17:49:46.393Z,11.54
2019-05-13T17:53:52.098Z,11.52
2019-05-13T17:57:56.376Z,11.47
2019-05-13T18:02:02.565Z,11.38
2019-05-13T18:06:06.748Z,11.38
2019-05-13T18:10:14.269Z,11.28
2019-05-13T18:14:17.941Z,11.26
2019-05-13T18:18:22.213Z,11.24
2019-05-13T18:22:26.444Z,11.23
2019-05-13T18:26:31.975Z,11.20
2019-05-13T18:30:36.324Z,11.23
2019-05-13T18:34:40.620Z,11.22
2019-05-13T18:38:45.054Z,11.21
2019-05-13T18:42:51.436Z,11.12
2019-05-13T18:46:55.324Z,11.08
2019-05-13T18:51:01.360Z,11.07
2019-05-13T18:55:06.277Z,11.05
2019-05-13T18:59:12.538Z,11.02
2019-05-13T19:03:16.640Z,10.95
2019-05-13T19:07:21.858Z,10.91
2019-05-13T19:11:26.365Z,10.87
2019-05-13T19:15:31.706Z,10.84
2019-05-13T19:19:36.037Z,10.81
2019-05-13T19:23:41.927Z,10.80
2019-05-13T19:27:46.331Z,10.81
2019-05-13T19:31:51.081Z,10.81
2019-05-13T19:35:55.430Z,10.83
2019-05-13T19:40:01.184Z,10.81
2019-05-13T19:44:05.620Z,10.76
2019-05-13T19:48:11.890Z,10.76
2019-05-13T19:52:16.151Z,10.73
2019-05-13T19:56:21.476Z,10.69
2019-05-13T20:00:25.955Z,10.70
2019-05-13T20:04:31.339Z,10.71
2019-05-13T20:08:35.935Z,10.67
2019-05-13T20:12:41.994Z,10.63
2019-05-13T20:16:46.219Z,10.62
2019-05-13T20:20:51.881Z,10.64
2019-05-13T20:24:56.278Z,10.62
2019-05-13T20:29:01.658Z,10.62
2019-05-13T20:33:06.548Z,10.62
2019-05-13T20:37:12.372Z,10.58
2019-05-13T20:41:16.908Z,10.55
2019-05-13T20:45:22.433Z,10.55
2019-05-13T20:49:26.974Z,10.55
2019-05-13T20:53:31.300Z,10.55
2019-05-13T20:57:35.502Z,10.57
2019-05-13T21:01:41.734Z,10.55
2019-05-13T21:05:45.891Z,10.51
2019-05-13T21:09:51.261Z,10.52
2019-05-13T21:13:55.920Z,10.50
2019-05-13T21:18:02.105Z,10.47
2019-05-13T21:22:06.746Z,10.41
2019-05-13T21:26:14.921Z,10.38
2019-05-13T21:30:17.405Z,10.34
2019-05-13T21:34:21.663Z,10.35
2019-05-13T21:38:26.036Z,10.39
2019-05-13T21:42:32.153Z,10.41
2019-05-13T21:46:36.488Z,10.45
2019-05-13T21:50:41.420Z,10.40
2019-05-13T21:54:46.183Z,10.40
2019-05-13T21:58:52.120Z,10.39
2019-05-13T22:02:57.355Z,10.40
2019-05-13T22:07:01.908Z,10.32
2019-05-13T22:11:06.232Z,10.30
2019-05-13T22:15:11.624Z,10.29
2019-05-13T22:19:15.917Z,10.25
2019-05-13T22:23:20.410Z,10.23
2019-05-13T22:27:24.937Z,10.21
2019-05-13T22:31:31.109Z,10.17
2019-05-13T22:35:35.512Z,10.14
2019-05-13T22:39:41.911Z,10.13
2019-05-13T22:43:55.741Z,10.09
2019-05-13T22:47:52.215Z,10.07
2019-05-13T22:51:56.486Z,10.12
2019-05-13T22:56:00.743Z,10.10
2019-05-13T23:00:05.480Z,10.05
2019-05-13T23:04:11.426Z,10.01
2019-05-13T23:08:15.994Z,9.94
2019-05-13T23:12:21.289Z,9.92
2019-05-13T23:16:25.579Z,9.92
2019-05-13T23:20:31.746Z,9.93
2019-05-13T23:24:35.743Z,9.90
2019-05-13T23:28:41.581Z,9.88
2019-05-13T23:32:46.132Z,9.88
2019-05-13T23:36:51.492Z,9.88
2019-05-13T23:40:55.952Z,9.89
2019-05-13T23:45:00.260Z,9.95
2019-05-13T23:49:04.479Z,9.96
2019-05-13T23:53:08.846Z,9.99
2019-05-13T23:57:13.092Z,10.05
